sensor_id;sensor_type;location;lat;lon;timestamp;P1;durP1;ratioP1;P2;durP2;ratioP2
36303;SDS011;22335;49.800;8.596;2024-01-25T00:04:17;25.30;;;16.10;;
36303;SDS011;22335;49.800;8.596;2024-01-25T00:11:01;31.45;;;16.10;;
36303;SDS011;22335;49.800;8.596;2024-01-25T00:17:46;30.40;;;17.15;;
36303;SDS011;22335;49.800;8.596;2024-01-25T00:24:29;28.98;;;17.13;;
36303;SDS011;22335;49.800;8.596;2024-01-25T00:31:13;32.38;;;16.50;;
36303;SDS011;22335;49.800;8.596;2024-01-25T00:37:58;30.60;;;16.77;;
36303;SDS011;22335;49.800;8.596;2024-01-25T00:44:42;27.25;;;15.68;;
36303;SDS011;22335;49.800;8.596;2024-01-25T00:51:27;26.15;;;16.95;;
36303;SDS011;22335;49.800;8.596;2024-01-25T00:58:13;29.20;;;17.10;;
36303;SDS011;22335;49.800;8.596;2024-01-25T01:04:57;30.65;;;16.13;;
36303;SDS011;22335;49.800;8.596;2024-01-25T01:11:41;28.63;;;16.20;;
36303;SDS011;22335;49.800;8.596;2024-01-25T01:18:26;28.08;;;16.73;;
36303;SDS011;22335;49.800;8.596;2024-01-25T01:25:10;31.48;;;16.20;;
36303;SDS011;22335;49.800;8.596;2024-01-25T01:31:53;28.48;;;16.80;;
36303;SDS011;22335;49.800;8.596;2024-01-25T01:38:38;28.60;;;16.20;;
36303;SDS011;22335;49.800;8.596;2024-01-25T01:45:22;29.77;;;16.90;;
36303;SDS011;22335;49.800;8.596;2024-01-25T01:52:06;31.50;;;16.58;;
36303;SDS011;22335;49.800;8.596;2024-01-25T01:58:51;26.25;;;15.90;;
36303;SDS011;22335;49.800;8.596;2024-01-25T02:05:36;23.35;;;15.63;;
36303;SDS011;22335;49.800;8.596;2024-01-25T02:12:19;28.55;;;16.13;;
36303;SDS011;22335;49.800;8.596;2024-01-25T02:19:04;26.77;;;16.52;;
36303;SDS011;22335;49.800;8.596;2024-01-25T02:25:49;29.08;;;16.15;;
36303;SDS011;22335;49.800;8.596;2024-01-25T02:32:32;27.13;;;16.15;;
36303;SDS011;22335;49.800;8.596;2024-01-25T02:39:16;23.65;;;16.13;;
36303;SDS011;22335;49.800;8.596;2024-01-25T02:46:01;24.52;;;16.10;;
36303;SDS011;22335;49.800;8.596;2024-01-25T02:52:45;27.15;;;15.68;;
36303;SDS011;22335;49.800;8.596;2024-01-25T02:59:28;30.42;;;15.90;;
36303;SDS011;22335;49.800;8.596;2024-01-25T03:06:13;22.38;;;15.98;;
36303;SDS011;22335;49.800;8.596;2024-01-25T03:12:56;25.98;;;16.80;;
36303;SDS011;22335;49.800;8.596;2024-01-25T03:19:40;26.30;;;16.30;;
36303;SDS011;22335;49.800;8.596;2024-01-25T03:26:26;32.20;;;16.90;;
36303;SDS011;22335;49.800;8.596;2024-01-25T03:33:10;27.45;;;17.27;;
36303;SDS011;22335;49.800;8.596;2024-01-25T03:39:53;27.30;;;16.85;;
36303;SDS011;22335;49.800;8.596;2024-01-25T04:01:44;28.35;;;17.27;;
36303;SDS011;22335;49.800;8.596;2024-01-25T04:08:28;30.67;;;16.48;;
36303;SDS011;22335;49.800;8.596;2024-01-25T04:15:11;33.95;;;17.30;;
36303;SDS011;22335;49.800;8.596;2024-01-25T04:21:56;31.35;;;17.45;;
36303;SDS011;22335;49.800;8.596;2024-01-25T04:28:40;28.90;;;16.60;;
36303;SDS011;22335;49.800;8.596;2024-01-25T04:35:23;31.55;;;16.63;;
36303;SDS011;22335;49.800;8.596;2024-01-25T04:42:08;32.53;;;17.05;;
36303;SDS011;22335;49.800;8.596;2024-01-25T04:48:51;23.63;;;16.80;;
36303;SDS011;22335;49.800;8.596;2024-01-25T04:55:35;28.45;;;16.40;;
36303;SDS011;22335;49.800;8.596;2024-01-25T05:02:20;26.10;;;17.27;;
36303;SDS011;22335;49.800;8.596;2024-01-25T05:09:04;23.55;;;16.08;;
36303;SDS011;22335;49.800;8.596;2024-01-25T05:15:49;28.63;;;16.67;;
36303;SDS011;22335;49.800;8.596;2024-01-25T05:22:34;28.02;;;17.48;;
36303;SDS011;22335;49.800;8.596;2024-01-25T05:29:23;26.85;;;17.05;;
36303;SDS011;22335;49.800;8.596;2024-01-25T05:36:06;31.45;;;16.70;;
36303;SDS011;22335;49.800;8.596;2024-01-25T05:42:52;26.45;;;16.45;;
36303;SDS011;22335;49.800;8.596;2024-01-25T05:49:35;29.77;;;17.05;;
36303;SDS011;22335;49.800;8.596;2024-01-25T05:56:19;30.83;;;17.00;;
36303;SDS011;22335;49.800;8.596;2024-01-25T06:03:04;28.55;;;16.63;;
36303;SDS011;22335;49.800;8.596;2024-01-25T06:09:48;26.60;;;16.77;;
36303;SDS011;22335;49.800;8.596;2024-01-25T06:16:31;23.67;;;16.50;;
36303;SDS011;22335;49.800;8.596;2024-01-25T06:23:16;28.80;;;17.40;;
36303;SDS011;22335;49.800;8.596;2024-01-25T06:29:59;26.33;;;17.13;;
36303;SDS011;22335;49.800;8.596;2024-01-25T06:36:43;28.50;;;16.48;;
36303;SDS011;22335;49.800;8.596;2024-01-25T06:43:28;26.73;;;17.13;;
36303;SDS011;22335;49.800;8.596;2024-01-25T06:50:11;22.77;;;16.80;;
36303;SDS011;22335;49.800;8.596;2024-01-25T06:56:55;27.75;;;16.65;;
36303;SDS011;22335;49.800;8.596;2024-01-25T07:03:40;24.63;;;16.40;;
36303;SDS011;22335;49.800;8.596;2024-01-25T07:10:24;22.25;;;16.05;;
36303;SDS011;22335;49.800;8.596;2024-01-25T07:17:07;26.17;;;16.35;;
36303;SDS011;22335;49.800;8.596;2024-01-25T07:23:52;24.40;;;16.75;;
36303;SDS011;22335;49.800;8.596;2024-01-25T07:30:36;30.30;;;17.85;;
36303;SDS011;22335;49.800;8.596;2024-01-25T07:37:19;27.27;;;17.38;;
36303;SDS011;22335;49.800;8.596;2024-01-25T07:44:04;24.13;;;17.13;;
36303;SDS011;22335;49.800;8.596;2024-01-25T07:50:47;30.05;;;17.05;;
36303;SDS011;22335;49.800;8.596;2024-01-25T07:57:31;24.60;;;17.73;;
36303;SDS011;22335;49.800;8.596;2024-01-25T08:04:16;26.75;;;17.38;;
36303;SDS011;22335;49.800;8.596;2024-01-25T08:10:59;25.92;;;17.50;;
36303;SDS011;22335;49.800;8.596;2024-01-25T08:17:43;30.85;;;17.70;;
36303;SDS011;22335;49.800;8.596;2024-01-25T08:24:27;30.67;;;18.50;;
36303;SDS011;22335;49.800;8.596;2024-01-25T08:31:11;33.38;;;17.48;;
36303;SDS011;22335;49.800;8.596;2024-01-25T08:37:55;27.70;;;17.77;;
36303;SDS011;22335;49.800;8.596;2024-01-25T08:44:40;26.17;;;18.20;;
36303;SDS011;22335;49.800;8.596;2024-01-25T08:51:30;26.67;;;16.70;;
36303;SDS011;22335;49.800;8.596;2024-01-25T08:58:13;30.00;;;17.10;;
36303;SDS011;22335;49.800;8.596;2024-01-25T09:04:59;35.63;;;17.42;;
36303;SDS011;22335;49.800;8.596;2024-01-25T09:11:43;35.88;;;18.23;;
36303;SDS011;22335;49.800;8.596;2024-01-25T09:18:26;30.08;;;17.15;;
36303;SDS011;22335;49.800;8.596;2024-01-25T09:25:11;27.98;;;17.13;;
36303;SDS011;22335;49.800;8.596;2024-01-25T09:31:55;28.50;;;17.10;;
36303;SDS011;22335;49.800;8.596;2024-01-25T09:38:38;32.17;;;16.13;;
36303;SDS011;22335;49.800;8.596;2024-01-25T09:45:24;26.27;;;16.60;;
36303;SDS011;22335;49.800;8.596;2024-01-25T09:52:08;30.90;;;17.30;;
36303;SDS011;22335;49.800;8.596;2024-01-25T09:58:56;31.60;;;17.30;;
36303;SDS011;22335;49.800;8.596;2024-01-25T10:05:42;31.40;;;16.75;;
36303;SDS011;22335;49.800;8.596;2024-01-25T10:12:26;30.60;;;16.58;;
36303;SDS011;22335;49.800;8.596;2024-01-25T10:19:09;31.95;;;16.55;;
36303;SDS011;22335;49.800;8.596;2024-01-25T10:25:54;32.13;;;17.00;;
36303;SDS011;22335;49.800;8.596;2024-01-25T10:32:39;32.90;;;16.48;;
36303;SDS011;22335;49.800;8.596;2024-01-25T10:39:24;29.65;;;17.20;;
36303;SDS011;22335;49.800;8.596;2024-01-25T10:46:09;37.88;;;16.83;;
36303;SDS011;22335;49.800;8.596;2024-01-25T10:52:53;29.63;;;16.27;;
36303;SDS011;22335;49.800;8.596;2024-01-25T10:59:37;32.33;;;15.52;;
36303;SDS011;22335;49.800;8.596;2024-01-25T11:06:22;35.10;;;16.05;;
36303;SDS011;22335;49.800;8.596;2024-01-25T11:13:05;31.17;;;16.10;;
36303;SDS011;22335;49.800;8.596;2024-01-25T11:19:59;35.20;;;16.05;;
36303;SDS011;22335;49.800;8.596;2024-01-25T11:26:46;31.98;;;16.77;;
36303;SDS011;22335;49.800;8.596;2024-01-25T11:33:30;33.20;;;16.52;;
36303;SDS011;22335;49.800;8.596;2024-01-25T11:40:15;35.08;;;16.42;;
36303;SDS011;22335;49.800;8.596;2024-01-25T11:47:00;30.10;;;16.17;;
36303;SDS011;22335;49.800;8.596;2024-01-25T11:53:44;25.92;;;15.13;;
36303;SDS011;22335;49.800;8.596;2024-01-25T12:00:27;29.15;;;16.63;;
36303;SDS011;22335;49.800;8.596;2024-01-25T12:07:12;30.55;;;16.00;;
36303;SDS011;22335;49.800;8.596;2024-01-25T12:13:57;31.35;;;15.93;;
36303;SDS011;22335;49.800;8.596;2024-01-25T12:20:41;29.13;;;16.17;;
36303;SDS011;22335;49.800;8.596;2024-01-25T12:27:26;31.88;;;16.42;;
36303;SDS011;22335;49.800;8.596;2024-01-25T12:34:13;29.92;;;15.82;;
36303;SDS011;22335;49.800;8.596;2024-01-25T12:40:57;31.52;;;16.48;;
36303;SDS011;22335;49.800;8.596;2024-01-25T12:47:42;31.60;;;15.30;;
36303;SDS011;22335;49.800;8.596;2024-01-25T12:54:26;27.85;;;15.65;;
36303;SDS011;22335;49.800;8.596;2024-01-25T13:01:10;28.20;;;15.60;;
36303;SDS011;22335;49.800;8.596;2024-01-25T13:07:55;30.60;;;16.17;;
36303;SDS011;22335;49.800;8.596;2024-01-25T13:14:39;32.30;;;16.00;;
36303;SDS011;22335;49.800;8.596;2024-01-25T13:21:22;30.30;;;15.45;;
36303;SDS011;22335;49.800;8.596;2024-01-25T13:28:07;30.40;;;16.25;;
36303;SDS011;22335;49.800;8.596;2024-01-25T13:34:50;28.17;;;15.35;;
36303;SDS011;22335;49.800;8.596;2024-01-25T13:41:34;29.42;;;15.20;;
36303;SDS011;22335;49.800;8.596;2024-01-25T13:48:18;26.70;;;15.02;;
36303;SDS011;22335;49.800;8.596;2024-01-25T13:55:02;29.45;;;15.18;;
36303;SDS011;22335;49.800;8.596;2024-01-25T14:01:46;22.83;;;15.82;;
36303;SDS011;22335;49.800;8.596;2024-01-25T14:08:32;25.00;;;14.80;;
36303;SDS011;22335;49.800;8.596;2024-01-25T14:15:15;25.40;;;14.60;;
36303;SDS011;22335;49.800;8.596;2024-01-25T14:21:59;26.23;;;15.02;;
36303;SDS011;22335;49.800;8.596;2024-01-25T14:28:46;27.83;;;15.20;;
36303;SDS011;22335;49.800;8.596;2024-01-25T14:35:31;29.02;;;15.48;;
36303;SDS011;22335;49.800;8.596;2024-01-25T14:42:14;26.85;;;15.50;;
36303;SDS011;22335;49.800;8.596;2024-01-25T14:48:59;28.30;;;16.20;;
36303;SDS011;22335;49.800;8.596;2024-01-25T14:55:43;27.00;;;15.77;;
36303;SDS011;22335;49.800;8.596;2024-01-25T15:02:26;27.20;;;14.60;;
36303;SDS011;22335;49.800;8.596;2024-01-25T15:09:11;27.83;;;15.05;;
36303;SDS011;22335;49.800;8.596;2024-01-25T15:15:54;28.27;;;14.88;;
36303;SDS011;22335;49.800;8.596;2024-01-25T15:22:38;25.23;;;15.00;;
36303;SDS011;22335;49.800;8.596;2024-01-25T15:29:23;24.92;;;15.38;;
36303;SDS011;22335;49.800;8.596;2024-01-25T15:36:06;25.85;;;14.95;;
36303;SDS011;22335;49.800;8.596;2024-01-25T15:42:50;21.45;;;14.68;;
36303;SDS011;22335;49.800;8.596;2024-01-25T15:49:37;20.90;;;15.70;;
36303;SDS011;22335;49.800;8.596;2024-01-25T15:56:21;24.63;;;15.27;;
36303;SDS011;22335;49.800;8.596;2024-01-25T16:03:04;27.40;;;15.88;;
36303;SDS011;22335;49.800;8.596;2024-01-25T16:09:49;27.27;;;15.98;;
36303;SDS011;22335;49.800;8.596;2024-01-25T16:16:33;28.42;;;15.93;;
36303;SDS011;22335;49.800;8.596;2024-01-25T16:23:16;31.73;;;16.48;;
36303;SDS011;22335;49.800;8.596;2024-01-25T16:30:01;32.78;;;16.58;;
36303;SDS011;22335;49.800;8.596;2024-01-25T16:36:45;30.08;;;16.48;;
36303;SDS011;22335;49.800;8.596;2024-01-25T16:43:29;34.30;;;16.75;;
36303;SDS011;22335;49.800;8.596;2024-01-25T16:50:14;28.10;;;17.90;;
36303;SDS011;22335;49.800;8.596;2024-01-25T16:56:57;28.85;;;16.52;;
36303;SDS011;22335;49.800;8.596;2024-01-25T17:03:41;26.38;;;16.17;;
36303;SDS011;22335;49.800;8.596;2024-01-25T17:10:25;32.88;;;16.25;;
36303;SDS011;22335;49.800;8.596;2024-01-25T17:17:09;26.80;;;15.88;;
36303;SDS011;22335;49.800;8.596;2024-01-25T17:23:52;26.92;;;15.95;;
36303;SDS011;22335;49.800;8.596;2024-01-25T17:30:37;30.80;;;16.15;;
36303;SDS011;22335;49.800;8.596;2024-01-25T17:37:21;33.78;;;17.23;;
36303;SDS011;22335;49.800;8.596;2024-01-25T17:44:04;27.95;;;17.15;;
36303;SDS011;22335;49.800;8.596;2024-01-25T17:50:49;31.42;;;17.00;;
36303;SDS011;22335;49.800;8.596;2024-01-25T17:57:32;32.38;;;16.73;;
36303;SDS011;22335;49.800;8.596;2024-01-25T18:04:16;26.40;;;16.70;;
36303;SDS011;22335;49.800;8.596;2024-01-25T18:11:01;27.90;;;17.23;;
36303;SDS011;22335;49.800;8.596;2024-01-25T18:17:44;30.10;;;17.23;;
36303;SDS011;22335;49.800;8.596;2024-01-25T18:24:28;27.42;;;17.10;;
36303;SDS011;22335;49.800;8.596;2024-01-25T18:31:12;29.33;;;16.75;;
36303;SDS011;22335;49.800;8.596;2024-01-25T18:37:56;27.60;;;17.63;;
36303;SDS011;22335;49.800;8.596;2024-01-25T18:44:40;30.70;;;16.95;;
36303;SDS011;22335;49.800;8.596;2024-01-25T18:51:25;35.47;;;18.42;;
36303;SDS011;22335;49.800;8.596;2024-01-25T18:58:08;31.38;;;17.30;;
36303;SDS011;22335;49.800;8.596;2024-01-25T19:04:53;27.05;;;17.48;;
36303;SDS011;22335;49.800;8.596;2024-01-25T19:11:38;26.13;;;17.88;;
36303;SDS011;22335;49.800;8.596;2024-01-25T19:18:21;29.08;;;17.35;;
36303;SDS011;22335;49.800;8.596;2024-01-25T19:25:09;26.00;;;17.42;;
36303;SDS011;22335;49.800;8.596;2024-01-25T19:31:54;31.25;;;18.65;;
36303;SDS011;22335;49.800;8.596;2024-01-25T19:38:37;26.67;;;19.73;;
36303;SDS011;22335;49.800;8.596;2024-01-25T19:45:22;38.92;;;20.15;;
36303;SDS011;22335;49.800;8.596;2024-01-25T19:52:07;32.30;;;19.25;;
36303;SDS011;22335;49.800;8.596;2024-01-25T19:58:50;30.98;;;19.88;;
36303;SDS011;22335;49.800;8.596;2024-01-25T20:05:34;33.08;;;20.83;;
36303;SDS011;22335;49.800;8.596;2024-01-25T20:12:20;25.92;;;18.60;;
36303;SDS011;22335;49.800;8.596;2024-01-25T20:19:03;31.50;;;18.90;;
36303;SDS011;22335;49.800;8.596;2024-01-25T20:25:47;31.75;;;18.20;;
36303;SDS011;22335;49.800;8.596;2024-01-25T20:32:31;29.17;;;18.15;;
36303;SDS011;22335;49.800;8.596;2024-01-25T20:39:15;23.48;;;17.27;;
36303;SDS011;22335;49.800;8.596;2024-01-25T20:45:58;24.55;;;18.77;;
36303;SDS011;22335;49.800;8.596;2024-01-25T20:52:43;27.85;;;18.17;;
36303;SDS011;22335;49.800;8.596;2024-01-25T20:59:27;25.67;;;19.33;;
36303;SDS011;22335;49.800;8.596;2024-01-25T21:06:11;22.33;;;20.00;;
36303;SDS011;22335;49.800;8.596;2024-01-25T21:12:57;22.98;;;19.40;;
36303;SDS011;22335;49.800;8.596;2024-01-25T21:19:41;22.00;;;19.73;;
36303;SDS011;22335;49.800;8.596;2024-01-25T21:26:24;22.63;;;20.23;;
36303;SDS011;22335;49.800;8.596;2024-01-25T21:33:09;23.48;;;20.98;;
36303;SDS011;22335;49.800;8.596;2024-01-25T21:39:53;25.85;;;22.13;;
36303;SDS011;22335;49.800;8.596;2024-01-25T21:46:36;26.27;;;23.73;;
36303;SDS011;22335;49.800;8.596;2024-01-25T21:53:22;28.15;;;25.40;;
36303;SDS011;22335;49.800;8.596;2024-01-25T22:00:06;28.52;;;25.27;;
36303;SDS011;22335;49.800;8.596;2024-01-25T22:06:51;30.13;;;26.98;;
36303;SDS011;22335;49.800;8.596;2024-01-25T22:13:37;28.70;;;25.10;;
36303;SDS011;22335;49.800;8.596;2024-01-25T22:20:21;28.70;;;25.70;;
36303;SDS011;22335;49.800;8.596;2024-01-25T22:27:05;29.45;;;25.92;;
36303;SDS011;22335;49.800;8.596;2024-01-25T22:33:51;30.05;;;26.98;;
36303;SDS011;22335;49.800;8.596;2024-01-25T22:40:34;29.67;;;26.70;;
36303;SDS011;22335;49.800;8.596;2024-01-25T22:47:18;33.30;;;26.58;;
36303;SDS011;22335;49.800;8.596;2024-01-25T22:54:03;29.42;;;26.33;;
36303;SDS011;22335;49.800;8.596;2024-01-25T23:00:46;30.75;;;27.63;;
36303;SDS011;22335;49.800;8.596;2024-01-25T23:07:30;33.33;;;27.77;;
36303;SDS011;22335;49.800;8.596;2024-01-25T23:14:15;31.45;;;28.05;;
36303;SDS011;22335;49.800;8.596;2024-01-25T23:20:58;30.85;;;27.92;;
36303;SDS011;22335;49.800;8.596;2024-01-25T23:27:42;30.52;;;27.35;;
36303;SDS011;22335;49.800;8.596;2024-01-25T23:34:26;31.35;;;28.15;;
36303;SDS011;22335;49.800;8.596;2024-01-25T23:41:10;33.22;;;29.17;;
36303;SDS011;22335;49.800;8.596;2024-01-25T23:47:53;33.20;;;29.73;;
36303;SDS011;22335;49.800;8.596;2024-01-25T23:54:38;35.03;;;29.30;;
